sensor_id;sensor_type;location;lat;lon;timestamp;P1;durP1;ratioP1;P2;durP2;ratioP2
75316;SDS011;63913;51.492;10.368;2023-08-17T00:00:44;6.00;;;3.08;;
75316;SDS011;63913;51.492;10.368;2023-08-17T00:03:09;6.97;;;2.97;;
75316;SDS011;63913;51.492;10.368;2023-08-17T00:05:35;4.78;;;2.53;;
75316;SDS011;63913;51.492;10.368;2023-08-17T00:08:00;4.40;;;2.60;;
75316;SDS011;63913;51.492;10.368;2023-08-17T00:10:27;9.52;;;3.35;;
75316;SDS011;63913;51.492;10.368;2023-08-17T00:12:52;6.20;;;2.50;;
75316;SDS011;63913;51.492;10.368;2023-08-17T00:15:17;6.50;;;2.60;;
75316;SDS011;63913;51.492;10.368;2023-08-17T00:17:43;3.90;;;2.28;;
75316;SDS011;63913;51.492;10.368;2023-08-17T00:20:08;7.20;;;2.28;;
75316;SDS011;63913;51.492;10.368;2023-08-17T00:22:35;4.90;;;1.77;;
75316;SDS011;63913;51.492;10.368;2023-08-17T00:25:01;3.58;;;1.77;;
75316;SDS011;63913;51.492;10.368;2023-08-17T00:27:28;2.60;;;2.03;;
75316;SDS011;63913;51.492;10.368;2023-08-17T00:29:53;3.25;;;1.55;;
75316;SDS011;63913;51.492;10.368;2023-08-17T00:32:19;1.83;;;1.40;;
75316;SDS011;63913;51.492;10.368;2023-08-17T00:34:44;3.13;;;2.15;;
75316;SDS011;63913;51.492;10.368;2023-08-17T00:37:10;2.90;;;1.65;;
75316;SDS011;63913;51.492;10.368;2023-08-17T00:39:35;3.63;;;1.50;;
75316;SDS011;63913;51.492;10.368;2023-08-17T00:42:00;2.65;;;1.40;;
75316;SDS011;63913;51.492;10.368;2023-08-17T00:44:26;4.95;;;1.40;;
75316;SDS011;63913;51.492;10.368;2023-08-17T00:46:51;2.00;;;1.27;;
75316;SDS011;63913;51.492;10.368;2023-08-17T00:49:17;2.20;;;1.50;;
75316;SDS011;63913;51.492;10.368;2023-08-17T00:51:43;2.60;;;1.30;;
75316;SDS011;63913;51.492;10.368;2023-08-17T00:54:08;3.78;;;1.48;;
75316;SDS011;63913;51.492;10.368;2023-08-17T00:56:35;3.25;;;1.23;;
75316;SDS011;63913;51.492;10.368;2023-08-17T00:59:01;1.60;;;1.27;;
75316;SDS011;63913;51.492;10.368;2023-08-17T01:01:26;3.63;;;1.42;;
75316;SDS011;63913;51.492;10.368;2023-08-17T01:03:52;3.40;;;1.90;;
75316;SDS011;63913;51.492;10.368;2023-08-17T01:06:18;2.67;;;1.80;;
75316;SDS011;63913;51.492;10.368;2023-08-17T01:08:43;2.75;;;2.00;;
75316;SDS011;63913;51.492;10.368;2023-08-17T01:13:46;5.72;;;2.00;;
75316;SDS011;63913;51.492;10.368;2023-08-17T01:16:21;3.90;;;1.83;;
75316;SDS011;63913;51.492;10.368;2023-08-17T01:18:50;5.45;;;2.00;;
75316;SDS011;63913;51.492;10.368;2023-08-17T01:21:17;2.83;;;1.65;;
75316;SDS011;63913;51.492;10.368;2023-08-17T01:23:48;3.75;;;2.28;;
75316;SDS011;63913;51.492;10.368;2023-08-17T01:26:14;3.00;;;1.80;;
75316;SDS011;63913;51.492;10.368;2023-08-17T01:28:46;3.13;;;1.80;;
75316;SDS011;63913;51.492;10.368;2023-08-17T01:31:27;1.60;;;1.50;;
75316;SDS011;63913;51.492;10.368;2023-08-17T01:33:58;2.40;;;1.77;;
75316;SDS011;63913;51.492;10.368;2023-08-17T01:36:37;1.92;;;1.58;;
75316;SDS011;63913;51.492;10.368;2023-08-17T01:39:11;5.55;;;1.90;;
75316;SDS011;63913;51.492;10.368;2023-08-17T01:41:39;1.88;;;1.58;;
75316;SDS011;63913;51.492;10.368;2023-08-17T01:44:06;2.33;;;1.80;;
75316;SDS011;63913;51.492;10.368;2023-08-17T01:46:32;3.78;;;1.70;;
75316;SDS011;63913;51.492;10.368;2023-08-17T01:48:58;2.22;;;1.83;;
75316;SDS011;63913;51.492;10.368;2023-08-17T01:51:24;5.18;;;1.85;;
75316;SDS011;63913;51.492;10.368;2023-08-17T01:53:50;2.20;;;1.50;;
75316;SDS011;63913;51.492;10.368;2023-08-17T01:56:16;2.20;;;1.58;;
75316;SDS011;63913;51.492;10.368;2023-08-17T01:58:41;4.32;;;1.92;;
75316;SDS011;63913;51.492;10.368;2023-08-17T02:01:07;1.52;;;1.27;;
75316;SDS011;63913;51.492;10.368;2023-08-17T02:03:32;2.60;;;1.40;;
75316;SDS011;63913;51.492;10.368;2023-08-17T02:05:58;1.40;;;1.30;;
75316;SDS011;63913;51.492;10.368;2023-08-17T02:08:24;2.60;;;1.50;;
75316;SDS011;63913;51.492;10.368;2023-08-17T02:10:51;1.75;;;1.65;;
75316;SDS011;63913;51.492;10.368;2023-08-17T02:13:17;1.20;;;1.10;;
75316;SDS011;63913;51.492;10.368;2023-08-17T02:15:43;1.23;;;1.10;;
75316;SDS011;63913;51.492;10.368;2023-08-17T02:18:09;1.00;;;0.90;;
75316;SDS011;63913;51.492;10.368;2023-08-17T02:20:35;1.10;;;1.00;;
75316;SDS011;63913;51.492;10.368;2023-08-17T02:23:00;1.20;;;1.10;;
75316;SDS011;63913;51.492;10.368;2023-08-17T02:25:26;1.63;;;0.90;;
75316;SDS011;63913;51.492;10.368;2023-08-17T02:27:52;0.95;;;0.82;;
75316;SDS011;63913;51.492;10.368;2023-08-17T02:30:18;1.40;;;1.15;;
75316;SDS011;63913;51.492;10.368;2023-08-17T02:32:43;1.00;;;0.95;;
75316;SDS011;63913;51.492;10.368;2023-08-17T02:35:08;1.77;;;1.10;;
75316;SDS011;63913;51.492;10.368;2023-08-17T02:37:34;2.45;;;1.02;;
75316;SDS011;63913;51.492;10.368;2023-08-17T02:39:59;1.52;;;1.20;;
75316;SDS011;63913;51.492;10.368;2023-08-17T02:42:26;1.05;;;1.00;;
75316;SDS011;63913;51.492;10.368;2023-08-17T02:44:52;1.20;;;1.10;;
75316;SDS011;63913;51.492;10.368;2023-08-17T02:47:18;1.13;;;1.02;;
75316;SDS011;63913;51.492;10.368;2023-08-17T02:49:43;2.88;;;1.13;;
75316;SDS011;63913;51.492;10.368;2023-08-17T02:52:09;1.58;;;1.10;;
75316;SDS011;63913;51.492;10.368;2023-08-17T02:54:34;1.20;;;0.80;;
75316;SDS011;63913;51.492;10.368;2023-08-17T02:56:59;2.55;;;1.27;;
75316;SDS011;63913;51.492;10.368;2023-08-17T02:59:25;1.58;;;0.95;;
75316;SDS011;63913;51.492;10.368;2023-08-17T03:01:50;1.30;;;1.05;;
75316;SDS011;63913;51.492;10.368;2023-08-17T03:04:16;0.98;;;0.93;;
75316;SDS011;63913;51.492;10.368;2023-08-17T03:06:41;1.05;;;0.98;;
75316;SDS011;63913;51.492;10.368;2023-08-17T03:09:06;1.60;;;1.10;;
75316;SDS011;63913;51.492;10.368;2023-08-17T03:11:33;1.55;;;1.10;;
75316;SDS011;63913;51.492;10.368;2023-08-17T03:13:59;1.33;;;1.20;;
75316;SDS011;63913;51.492;10.368;2023-08-17T03:16:28;2.10;;;1.55;;
75316;SDS011;63913;51.492;10.368;2023-08-17T03:18:55;1.27;;;1.10;;
75316;SDS011;63913;51.492;10.368;2023-08-17T03:21:22;1.33;;;1.23;;
75316;SDS011;63913;51.492;10.368;2023-08-17T03:23:48;2.40;;;1.40;;
75316;SDS011;63913;51.492;10.368;2023-08-17T03:26:14;1.45;;;1.10;;
75316;SDS011;63913;51.492;10.368;2023-08-17T03:28:40;0.95;;;0.90;;
75316;SDS011;63913;51.492;10.368;2023-08-17T03:31:06;1.40;;;1.20;;
75316;SDS011;63913;51.492;10.368;2023-08-17T03:33:34;3.45;;;1.45;;
75316;SDS011;63913;51.492;10.368;2023-08-17T03:36:00;1.40;;;1.30;;
75316;SDS011;63913;51.492;10.368;2023-08-17T03:38:26;1.50;;;1.40;;
75316;SDS011;63913;51.492;10.368;2023-08-17T03:40:52;2.38;;;1.63;;
75316;SDS011;63913;51.492;10.368;2023-08-17T03:43:21;1.60;;;1.20;;
75316;SDS011;63913;51.492;10.368;2023-08-17T03:45:47;2.17;;;1.27;;
75316;SDS011;63913;51.492;10.368;2023-08-17T03:48:12;1.20;;;1.10;;
75316;SDS011;63913;51.492;10.368;2023-08-17T03:50:38;1.75;;;1.30;;
75316;SDS011;63913;51.492;10.368;2023-08-17T03:53:04;1.60;;;1.40;;
75316;SDS011;63913;51.492;10.368;2023-08-17T03:55:29;1.63;;;1.50;;
75316;SDS011;63913;51.492;10.368;2023-08-17T03:57:55;2.30;;;2.10;;
75316;SDS011;63913;51.492;10.368;2023-08-17T04:00:20;1.90;;;1.65;;
75316;SDS011;63913;51.492;10.368;2023-08-17T04:02:51;3.58;;;1.65;;
75316;SDS011;63913;51.492;10.368;2023-08-17T04:05:19;1.67;;;1.40;;
75316;SDS011;63913;51.492;10.368;2023-08-17T04:07:44;4.32;;;1.40;;
75316;SDS011;63913;51.492;10.368;2023-08-17T04:10:10;1.75;;;1.48;;
75316;SDS011;63913;51.492;10.368;2023-08-17T04:12:35;1.52;;;1.20;;
75316;SDS011;63913;51.492;10.368;2023-08-17T04:15:01;3.53;;;1.70;;
75316;SDS011;63913;51.492;10.368;2023-08-17T04:17:26;3.55;;;1.48;;
75316;SDS011;63913;51.492;10.368;2023-08-17T04:19:52;2.17;;;1.75;;
75316;SDS011;63913;51.492;10.368;2023-08-17T04:22:18;1.88;;;1.48;;
75316;SDS011;63913;51.492;10.368;2023-08-17T04:24:43;1.45;;;1.35;;
75316;SDS011;63913;51.492;10.368;2023-08-17T04:27:09;4.53;;;2.13;;
75316;SDS011;63913;51.492;10.368;2023-08-17T04:29:35;3.05;;;1.85;;
75316;SDS011;63913;51.492;10.368;2023-08-17T04:32:02;2.33;;;2.10;;
75316;SDS011;63913;51.492;10.368;2023-08-17T04:34:27;2.40;;;2.05;;
75316;SDS011;63913;51.492;10.368;2023-08-17T04:36:53;3.53;;;2.33;;
75316;SDS011;63913;51.492;10.368;2023-08-17T04:39:19;3.85;;;2.60;;
75316;SDS011;63913;51.492;10.368;2023-08-17T04:41:44;3.17;;;2.10;;
75316;SDS011;63913;51.492;10.368;2023-08-17T04:44:14;1.70;;;1.50;;
75316;SDS011;63913;51.492;10.368;2023-08-17T04:46:39;1.52;;;1.42;;
75316;SDS011;63913;51.492;10.368;2023-08-17T04:49:05;1.63;;;1.52;;
75316;SDS011;63913;51.492;10.368;2023-08-17T04:51:31;2.50;;;1.40;;
75316;SDS011;63913;51.492;10.368;2023-08-17T04:53:56;1.77;;;1.20;;
75316;SDS011;63913;51.492;10.368;2023-08-17T04:56:22;1.42;;;1.30;;
75316;SDS011;63913;51.492;10.368;2023-08-17T04:58:47;1.25;;;1.15;;
75316;SDS011;63913;51.492;10.368;2023-08-17T05:01:13;1.48;;;1.30;;
75316;SDS011;63913;51.492;10.368;2023-08-17T05:03:38;3.13;;;1.58;;
75316;SDS011;63913;51.492;10.368;2023-08-17T05:06:04;1.83;;;1.60;;
75316;SDS011;63913;51.492;10.368;2023-08-17T05:08:31;1.60;;;1.50;;
75316;SDS011;63913;51.492;10.368;2023-08-17T05:10:56;2.03;;;1.40;;
75316;SDS011;63913;51.492;10.368;2023-08-17T05:13:24;2.53;;;1.52;;
75316;SDS011;63913;51.492;10.368;2023-08-17T05:15:52;2.13;;;1.55;;
75316;SDS011;63913;51.492;10.368;2023-08-17T05:18:18;3.00;;;1.27;;
75316;SDS011;63913;51.492;10.368;2023-08-17T05:20:45;1.70;;;1.60;;
75316;SDS011;63913;51.492;10.368;2023-08-17T05:23:10;1.88;;;1.63;;
75316;SDS011;63913;51.492;10.368;2023-08-17T05:25:36;9.38;;;1.40;;
75316;SDS011;63913;51.492;10.368;2023-08-17T05:28:02;3.45;;;1.55;;
75316;SDS011;63913;51.492;10.368;2023-08-17T05:30:27;2.50;;;1.80;;
75316;SDS011;63913;51.492;10.368;2023-08-17T05:32:53;2.28;;;1.50;;
75316;SDS011;63913;51.492;10.368;2023-08-17T05:35:19;1.70;;;1.60;;
75316;SDS011;63913;51.492;10.368;2023-08-17T05:37:45;4.35;;;1.90;;
75316;SDS011;63913;51.492;10.368;2023-08-17T05:40:10;2.10;;;1.65;;
75316;SDS011;63913;51.492;10.368;2023-08-17T05:42:36;2.83;;;1.73;;
75316;SDS011;63913;51.492;10.368;2023-08-17T05:45:02;1.77;;;1.50;;
75316;SDS011;63913;51.492;10.368;2023-08-17T05:47:27;1.75;;;1.50;;
75316;SDS011;63913;51.492;10.368;2023-08-17T05:49:52;5.28;;;1.80;;
75316;SDS011;63913;51.492;10.368;2023-08-17T05:52:18;2.80;;;1.80;;
75316;SDS011;63913;51.492;10.368;2023-08-17T05:54:43;3.25;;;2.00;;
75316;SDS011;63913;51.492;10.368;2023-08-17T05:57:08;2.38;;;1.70;;
75316;SDS011;63913;51.492;10.368;2023-08-17T05:59:35;3.40;;;2.05;;
75316;SDS011;63913;51.492;10.368;2023-08-17T06:02:00;3.22;;;2.08;;
75316;SDS011;63913;51.492;10.368;2023-08-17T06:04:25;3.42;;;2.03;;
75316;SDS011;63913;51.492;10.368;2023-08-17T06:06:51;3.50;;;1.70;;
75316;SDS011;63913;51.492;10.368;2023-08-17T06:09:16;1.50;;;1.40;;
75316;SDS011;63913;51.492;10.368;2023-08-17T06:11:42;1.42;;;1.30;;
75316;SDS011;63913;51.492;10.368;2023-08-17T06:14:07;1.65;;;1.20;;
75316;SDS011;63913;51.492;10.368;2023-08-17T06:16:33;1.60;;;1.40;;
75316;SDS011;63913;51.492;10.368;2023-08-17T06:18:58;4.25;;;1.70;;
75316;SDS011;63913;51.492;10.368;2023-08-17T06:21:24;2.20;;;1.73;;
75316;SDS011;63913;51.492;10.368;2023-08-17T06:23:49;1.52;;;1.27;;
75316;SDS011;63913;51.492;10.368;2023-08-17T06:26:14;2.35;;;1.40;;
75316;SDS011;63913;51.492;10.368;2023-08-17T06:28:40;1.50;;;1.40;;
75316;SDS011;63913;51.492;10.368;2023-08-17T06:31:05;2.13;;;1.77;;
75316;SDS011;63913;51.492;10.368;2023-08-17T06:33:31;2.22;;;1.48;;
75316;SDS011;63913;51.492;10.368;2023-08-17T06:35:57;2.90;;;1.77;;
75316;SDS011;63913;51.492;10.368;2023-08-17T06:38:22;1.55;;;1.45;;
75316;SDS011;63913;51.492;10.368;2023-08-17T06:40:48;1.90;;;1.70;;
75316;SDS011;63913;51.492;10.368;2023-08-17T06:43:13;2.45;;;1.40;;
75316;SDS011;63913;51.492;10.368;2023-08-17T06:45:39;1.70;;;1.30;;
75316;SDS011;63913;51.492;10.368;2023-08-17T06:48:04;1.50;;;1.30;;
75316;SDS011;63913;51.492;10.368;2023-08-17T06:50:30;1.45;;;1.35;;
75316;SDS011;63913;51.492;10.368;2023-08-17T06:52:56;1.45;;;1.27;;
75316;SDS011;63913;51.492;10.368;2023-08-17T06:55:21;1.48;;;1.38;;
75316;SDS011;63913;51.492;10.368;2023-08-17T06:57:47;1.40;;;1.30;;
75316;SDS011;63913;51.492;10.368;2023-08-17T07:00:16;4.75;;;1.55;;
75316;SDS011;63913;51.492;10.368;2023-08-17T07:02:45;3.13;;;1.70;;
75316;SDS011;63913;51.492;10.368;2023-08-17T07:05:12;2.83;;;1.60;;
75316;SDS011;63913;51.492;10.368;2023-08-17T07:07:39;1.67;;;1.58;;
75316;SDS011;63913;51.492;10.368;2023-08-17T07:10:04;1.92;;;1.55;;
75316;SDS011;63913;51.492;10.368;2023-08-17T07:12:32;2.55;;;1.98;;
75316;SDS011;63913;51.492;10.368;2023-08-17T07:14:57;2.67;;;1.60;;
75316;SDS011;63913;51.492;10.368;2023-08-17T07:17:23;2.67;;;2.00;;
75316;SDS011;63913;51.492;10.368;2023-08-17T07:19:48;10.15;;;6.28;;
75316;SDS011;63913;51.492;10.368;2023-08-17T07:22:13;2.97;;;2.30;;
75316;SDS011;63913;51.492;10.368;2023-08-17T07:24:39;2.22;;;2.03;;
75316;SDS011;63913;51.492;10.368;2023-08-17T07:27:04;3.05;;;2.05;;
75316;SDS011;63913;51.492;10.368;2023-08-17T07:29:30;2.72;;;1.83;;
75316;SDS011;63913;51.492;10.368;2023-08-17T07:31:55;4.38;;;2.22;;
75316;SDS011;63913;51.492;10.368;2023-08-17T07:34:23;4.35;;;2.17;;
75316;SDS011;63913;51.492;10.368;2023-08-17T07:36:49;2.28;;;2.05;;
75316;SDS011;63913;51.492;10.368;2023-08-17T07:39:14;3.67;;;2.30;;
75316;SDS011;63913;51.492;10.368;2023-08-17T07:41:39;3.55;;;2.75;;
75316;SDS011;63913;51.492;10.368;2023-08-17T07:44:05;6.55;;;2.90;;
75316;SDS011;63913;51.492;10.368;2023-08-17T07:46:30;4.75;;;2.70;;
75316;SDS011;63913;51.492;10.368;2023-08-17T07:48:56;3.42;;;2.60;;
75316;SDS011;63913;51.492;10.368;2023-08-17T07:51:21;3.05;;;2.75;;
75316;SDS011;63913;51.492;10.368;2023-08-17T07:53:46;5.13;;;2.28;;
75316;SDS011;63913;51.492;10.368;2023-08-17T07:56:12;4.97;;;2.42;;
75316;SDS011;63913;51.492;10.368;2023-08-17T07:58:37;4.63;;;2.25;;
75316;SDS011;63913;51.492;10.368;2023-08-17T08:01:03;5.28;;;2.75;;
75316;SDS011;63913;51.492;10.368;2023-08-17T08:03:28;8.20;;;3.28;;
75316;SDS011;63913;51.492;10.368;2023-08-17T08:05:54;4.90;;;2.50;;
75316;SDS011;63913;51.492;10.368;2023-08-17T08:08:19;3.85;;;2.50;;
75316;SDS011;63913;51.492;10.368;2023-08-17T08:10:45;5.32;;;2.60;;
75316;SDS011;63913;51.492;10.368;2023-08-17T08:13:11;3.20;;;2.05;;
75316;SDS011;63913;51.492;10.368;2023-08-17T08:15:36;2.25;;;2.00;;
75316;SDS011;63913;51.492;10.368;2023-08-17T08:18:02;2.50;;;1.83;;
75316;SDS011;63913;51.492;10.368;2023-08-17T08:20:27;4.20;;;2.33;;
75316;SDS011;63913;51.492;10.368;2023-08-17T08:22:53;2.65;;;2.08;;
75316;SDS011;63913;51.492;10.368;2023-08-17T08:25:18;3.08;;;2.10;;
75316;SDS011;63913;51.492;10.368;2023-08-17T08:27:43;2.25;;;2.05;;
75316;SDS011;63913;51.492;10.368;2023-08-17T08:30:09;3.05;;;2.10;;
75316;SDS011;63913;51.492;10.368;2023-08-17T08:32:34;2.95;;;2.00;;
75316;SDS011;63913;51.492;10.368;2023-08-17T08:35:00;2.95;;;1.95;;
75316;SDS011;63913;51.492;10.368;2023-08-17T08:37:25;3.35;;;2.08;;
75316;SDS011;63913;51.492;10.368;2023-08-17T08:39:51;2.40;;;2.13;;
75316;SDS011;63913;51.492;10.368;2023-08-17T08:42:17;3.10;;;2.05;;
75316;SDS011;63913;51.492;10.368;2023-08-17T08:44:43;2.97;;;2.20;;
75316;SDS011;63913;51.492;10.368;2023-08-17T08:47:09;4.82;;;2.08;;
75316;SDS011;63913;51.492;10.368;2023-08-17T08:49:36;2.05;;;1.88;;
75316;SDS011;63913;51.492;10.368;2023-08-17T08:52:04;3.08;;;1.88;;
75316;SDS011;63913;51.492;10.368;2023-08-17T08:54:32;1.95;;;1.77;;
75316;SDS011;63913;51.492;10.368;2023-08-17T08:57:03;8.52;;;2.28;;
75316;SDS011;63913;51.492;10.368;2023-08-17T08:59:31;16.33;;;2.55;;
75316;SDS011;63913;51.492;10.368;2023-08-17T09:01:59;3.85;;;2.10;;
75316;SDS011;63913;51.492;10.368;2023-08-17T09:04:25;2.65;;;1.70;;
75316;SDS011;63913;51.492;10.368;2023-08-17T09:06:51;2.40;;;2.20;;
75316;SDS011;63913;51.492;10.368;2023-08-17T09:09:16;6.72;;;2.85;;
75316;SDS011;63913;51.492;10.368;2023-08-17T09:11:43;5.30;;;3.88;;
75316;SDS011;63913;51.492;10.368;2023-08-17T09:14:09;2.33;;;1.95;;
75316;SDS011;63913;51.492;10.368;2023-08-17T09:16:34;2.05;;;1.85;;
75316;SDS011;63913;51.492;10.368;2023-08-17T09:19:00;1.88;;;1.77;;
75316;SDS011;63913;51.492;10.368;2023-08-17T09:21:26;5.20;;;2.00;;
75316;SDS011;63913;51.492;10.368;2023-08-17T09:23:57;2.10;;;1.70;;
75316;SDS011;63913;51.492;10.368;2023-08-17T09:26:22;1.95;;;1.75;;
75316;SDS011;63913;51.492;10.368;2023-08-17T09:28:49;1.90;;;1.70;;
75316;SDS011;63913;51.492;10.368;2023-08-17T09:31:15;2.35;;;1.70;;
75316;SDS011;63913;51.492;10.368;2023-08-17T09:33:40;2.40;;;2.20;;
75316;SDS011;63913;51.492;10.368;2023-08-17T09:36:06;2.40;;;2.00;;
75316;SDS011;63913;51.492;10.368;2023-08-17T09:38:31;2.63;;;2.42;;
75316;SDS011;63913;51.492;10.368;2023-08-17T09:40:56;4.15;;;1.98;;
75316;SDS011;63913;51.492;10.368;2023-08-17T09:43:22;2.35;;;2.08;;
75316;SDS011;63913;51.492;10.368;2023-08-17T09:45:49;3.90;;;1.98;;
75316;SDS011;63913;51.492;10.368;2023-08-17T09:48:19;3.80;;;2.05;;
75316;SDS011;63913;51.492;10.368;2023-08-17T09:50:45;2.08;;;1.85;;
75316;SDS011;63913;51.492;10.368;2023-08-17T09:53:15;4.60;;;2.97;;
75316;SDS011;63913;51.492;10.368;2023-08-17T09:55:42;6.55;;;4.10;;
75316;SDS011;63913;51.492;10.368;2023-08-17T09:58:08;2.75;;;2.00;;
75316;SDS011;63913;51.492;10.368;2023-08-17T10:00:34;2.78;;;2.10;;
75316;SDS011;63913;51.492;10.368;2023-08-17T10:03:01;1.80;;;1.70;;
75316;SDS011;63913;51.492;10.368;2023-08-17T10:05:28;2.05;;;1.85;;
75316;SDS011;63913;51.492;10.368;2023-08-17T10:07:57;2.92;;;2.25;;
75316;SDS011;63913;51.492;10.368;2023-08-17T10:10:25;1.95;;;1.75;;
75316;SDS011;63913;51.492;10.368;2023-08-17T10:13:05;2.70;;;1.90;;
75316;SDS011;63913;51.492;10.368;2023-08-17T10:15:35;1.98;;;1.73;;
75316;SDS011;63913;51.492;10.368;2023-08-17T10:20:42;2.33;;;2.03;;
75316;SDS011;63913;51.492;10.368;2023-08-17T10:23:14;2.10;;;1.90;;
75316;SDS011;63913;51.492;10.368;2023-08-17T10:25:42;2.60;;;2.25;;
75316;SDS011;63913;51.492;10.368;2023-08-17T10:28:11;2.75;;;2.00;;
75316;SDS011;63913;51.492;10.368;2023-08-17T10:30:37;2.30;;;2.10;;
75316;SDS011;63913;51.492;10.368;2023-08-17T10:33:04;2.00;;;1.90;;
75316;SDS011;63913;51.492;10.368;2023-08-17T10:35:31;2.67;;;1.98;;
75316;SDS011;63913;51.492;10.368;2023-08-17T10:37:58;2.30;;;2.10;;
75316;SDS011;63913;51.492;10.368;2023-08-17T10:40:27;2.33;;;2.13;;
75316;SDS011;63913;51.492;10.368;2023-08-17T10:42:54;3.03;;;2.33;;
75316;SDS011;63913;51.492;10.368;2023-08-17T10:45:29;3.13;;;2.72;;
75316;SDS011;63913;51.492;10.368;2023-08-17T10:50:37;2.70;;;2.30;;
75316;SDS011;63913;51.492;10.368;2023-08-17T10:53:04;2.00;;;1.83;;
75316;SDS011;63913;51.492;10.368;2023-08-17T10:55:35;2.63;;;2.42;;
75316;SDS011;63913;51.492;10.368;2023-08-17T10:58:02;2.45;;;2.25;;
75316;SDS011;63913;51.492;10.368;2023-08-17T11:00:31;2.92;;;1.98;;
75316;SDS011;63913;51.492;10.368;2023-08-17T11:03:04;2.88;;;2.17;;
75316;SDS011;63913;51.492;10.368;2023-08-17T11:08:06;3.60;;;2.47;;
75316;SDS011;63913;51.492;10.368;2023-08-17T11:10:34;2.38;;;2.17;;
75316;SDS011;63913;51.492;10.368;2023-08-17T11:12:59;2.10;;;1.90;;
75316;SDS011;63913;51.492;10.368;2023-08-17T11:15:26;2.67;;;2.00;;
75316;SDS011;63913;51.492;10.368;2023-08-17T11:18:00;2.80;;;2.38;;
75316;SDS011;63913;51.492;10.368;2023-08-17T11:20:25;3.58;;;2.60;;
75316;SDS011;63913;51.492;10.368;2023-08-17T11:22:51;2.30;;;1.70;;
75316;SDS011;63913;51.492;10.368;2023-08-17T11:25:17;2.65;;;2.45;;
75316;SDS011;63913;51.492;10.368;2023-08-17T11:27:42;2.40;;;2.20;;
75316;SDS011;63913;51.492;10.368;2023-08-17T11:30:08;2.42;;;2.20;;
75316;SDS011;63913;51.492;10.368;2023-08-17T11:32:34;2.50;;;2.30;;
75316;SDS011;63913;51.492;10.368;2023-08-17T11:34:59;3.20;;;2.20;;
75316;SDS011;63913;51.492;10.368;2023-08-17T11:37:25;2.25;;;2.05;;
75316;SDS011;63913;51.492;10.368;2023-08-17T11:39:50;2.47;;;2.28;;
75316;SDS011;63913;51.492;10.368;2023-08-17T11:42:15;2.60;;;2.40;;
75316;SDS011;63913;51.492;10.368;2023-08-17T11:44:41;2.88;;;2.33;;
75316;SDS011;63913;51.492;10.368;2023-08-17T11:47:06;2.42;;;2.22;;
75316;SDS011;63913;51.492;10.368;2023-08-17T11:49:32;2.78;;;2.17;;
75316;SDS011;63913;51.492;10.368;2023-08-17T11:51:57;5.28;;;2.50;;
75316;SDS011;63913;51.492;10.368;2023-08-17T11:54:23;3.00;;;2.50;;
75316;SDS011;63913;51.492;10.368;2023-08-17T11:56:48;2.92;;;2.72;;
75316;SDS011;63913;51.492;10.368;2023-08-17T11:59:13;2.70;;;2.50;;
75316;SDS011;63913;51.492;10.368;2023-08-17T12:01:39;4.35;;;3.55;;
75316;SDS011;63913;51.492;10.368;2023-08-17T12:04:05;5.15;;;2.47;;
75316;SDS011;63913;51.492;10.368;2023-08-17T12:06:31;2.80;;;2.40;;
75316;SDS011;63913;51.492;10.368;2023-08-17T12:08:57;2.63;;;2.35;;
75316;SDS011;63913;51.492;10.368;2023-08-17T12:11:25;2.30;;;2.10;;
75316;SDS011;63913;51.492;10.368;2023-08-17T12:13:51;2.65;;;2.45;;
75316;SDS011;63913;51.492;10.368;2023-08-17T12:16:18;6.25;;;3.13;;
75316;SDS011;63913;51.492;10.368;2023-08-17T12:18:48;5.00;;;2.15;;
75316;SDS011;63913;51.492;10.368;2023-08-17T12:21:15;4.07;;;2.53;;
75316;SDS011;63913;51.492;10.368;2023-08-17T12:23:41;1.83;;;1.60;;
75316;SDS011;63913;51.492;10.368;2023-08-17T12:26:07;2.88;;;2.22;;
75316;SDS011;63913;51.492;10.368;2023-08-17T12:28:33;2.30;;;2.10;;
75316;SDS011;63913;51.492;10.368;2023-08-17T12:30:59;2.20;;;2.00;;
75316;SDS011;63913;51.492;10.368;2023-08-17T12:33:25;5.45;;;2.28;;
75316;SDS011;63913;51.492;10.368;2023-08-17T12:35:51;2.60;;;2.40;;
75316;SDS011;63913;51.492;10.368;2023-08-17T12:38:16;2.28;;;2.05;;
75316;SDS011;63913;51.492;10.368;2023-08-17T12:40:41;3.17;;;2.15;;
75316;SDS011;63913;51.492;10.368;2023-08-17T12:43:07;2.78;;;2.35;;
75316;SDS011;63913;51.492;10.368;2023-08-17T12:45:32;2.47;;;2.08;;
75316;SDS011;63913;51.492;10.368;2023-08-17T12:47:58;2.10;;;1.90;;
75316;SDS011;63913;51.492;10.368;2023-08-17T12:50:24;2.30;;;2.10;;
75316;SDS011;63913;51.492;10.368;2023-08-17T12:52:50;3.42;;;2.20;;
75316;SDS011;63913;51.492;10.368;2023-08-17T12:55:15;2.78;;;2.20;;
75316;SDS011;63913;51.492;10.368;2023-08-17T12:57:41;4.10;;;2.10;;
75316;SDS011;63913;51.492;10.368;2023-08-17T13:00:06;2.40;;;2.20;;
75316;SDS011;63913;51.492;10.368;2023-08-17T13:02:32;2.15;;;2.00;;
75316;SDS011;63913;51.492;10.368;2023-08-17T13:04:57;3.88;;;1.98;;
75316;SDS011;63913;51.492;10.368;2023-08-17T13:07:23;3.10;;;2.33;;
75316;SDS011;63913;51.492;10.368;2023-08-17T13:09:48;2.40;;;2.20;;
75316;SDS011;63913;51.492;10.368;2023-08-17T13:12:14;1.75;;;1.65;;
75316;SDS011;63913;51.492;10.368;2023-08-17T13:14:39;2.67;;;2.10;;
75316;SDS011;63913;51.492;10.368;2023-08-17T13:17:04;1.98;;;1.85;;
75316;SDS011;63913;51.492;10.368;2023-08-17T13:19:30;2.55;;;2.00;;
75316;SDS011;63913;51.492;10.368;2023-08-17T13:21:55;2.95;;;1.80;;
75316;SDS011;63913;51.492;10.368;2023-08-17T13:24:20;3.53;;;1.88;;
75316;SDS011;63913;51.492;10.368;2023-08-17T13:26:46;3.40;;;2.40;;
75316;SDS011;63913;51.492;10.368;2023-08-17T13:29:11;2.35;;;1.98;;
75316;SDS011;63913;51.492;10.368;2023-08-17T13:31:36;2.38;;;1.92;;
75316;SDS011;63913;51.492;10.368;2023-08-17T13:34:02;2.53;;;2.33;;
75316;SDS011;63913;51.492;10.368;2023-08-17T13:36:28;3.60;;;2.60;;
75316;SDS011;63913;51.492;10.368;2023-08-17T13:38:54;2.35;;;1.92;;
75316;SDS011;63913;51.492;10.368;2023-08-17T13:41:19;2.15;;;1.95;;
75316;SDS011;63913;51.492;10.368;2023-08-17T13:43:45;2.13;;;1.85;;
75316;SDS011;63913;51.492;10.368;2023-08-17T13:46:10;2.00;;;1.80;;
75316;SDS011;63913;51.492;10.368;2023-08-17T13:48:37;2.13;;;2.00;;
75316;SDS011;63913;51.492;10.368;2023-08-17T13:51:04;2.22;;;1.90;;
75316;SDS011;63913;51.492;10.368;2023-08-17T13:53:29;1.80;;;1.45;;
75316;SDS011;63913;51.492;10.368;2023-08-17T13:55:55;2.72;;;1.85;;
75316;SDS011;63913;51.492;10.368;2023-08-17T13:58:20;2.67;;;1.80;;
75316;SDS011;63913;51.492;10.368;2023-08-17T14:00:45;3.35;;;1.80;;
75316;SDS011;63913;51.492;10.368;2023-08-17T14:03:11;10.45;;;2.55;;
75316;SDS011;63913;51.492;10.368;2023-08-17T14:05:36;2.83;;;2.00;;
75316;SDS011;63913;51.492;10.368;2023-08-17T14:08:02;2.10;;;1.90;;
75316;SDS011;63913;51.492;10.368;2023-08-17T14:10:29;2.00;;;1.90;;
75316;SDS011;63913;51.492;10.368;2023-08-17T14:12:54;2.10;;;1.90;;
75316;SDS011;63913;51.492;10.368;2023-08-17T14:15:20;2.63;;;2.42;;
75316;SDS011;63913;51.492;10.368;2023-08-17T14:17:46;2.50;;;2.25;;
75316;SDS011;63913;51.492;10.368;2023-08-17T14:20:11;1.77;;;1.65;;
75316;SDS011;63913;51.492;10.368;2023-08-17T14:22:37;2.22;;;2.03;;
75316;SDS011;63913;51.492;10.368;2023-08-17T14:25:02;2.15;;;2.05;;
75316;SDS011;63913;51.492;10.368;2023-08-17T14:27:28;1.92;;;1.83;;
75316;SDS011;63913;51.492;10.368;2023-08-17T14:29:53;2.20;;;2.00;;
75316;SDS011;63913;51.492;10.368;2023-08-17T14:32:19;1.90;;;1.70;;
75316;SDS011;63913;51.492;10.368;2023-08-17T14:34:44;2.20;;;1.73;;
75316;SDS011;63913;51.492;10.368;2023-08-17T14:37:10;1.70;;;1.60;;